Current METAR

KOGD 170653Z AUTO 15006KT 10SM SCT085 M05/M06 A2983 RMK AO2 SNB38E47 SLP117 P0000 T10501061 400001072 $